sensor_id;sensor_type;location;lat;lon;timestamp;P1;durP1;ratioP1;P2;durP2;ratioP2
32292;SDS011;43233;48.608;8.838;2024-01-30T00:01:41;8.47;;;7.50;;
32292;SDS011;43233;48.608;8.838;2024-01-30T00:04:06;12.20;;;7.80;;
32292;SDS011;43233;48.608;8.838;2024-01-30T00:06:32;10.00;;;7.50;;
32292;SDS011;43233;48.608;8.838;2024-01-30T00:08:58;11.07;;;7.83;;
32292;SDS011;43233;48.608;8.838;2024-01-30T00:11:23;13.17;;;7.97;;
32292;SDS011;43233;48.608;8.838;2024-01-30T00:13:50;11.70;;;8.20;;
32292;SDS011;43233;48.608;8.838;2024-01-30T00:16:23;11.00;;;7.20;;
32292;SDS011;43233;48.608;8.838;2024-01-30T00:18:49;11.03;;;7.43;;
32292;SDS011;43233;48.608;8.838;2024-01-30T00:21:16;12.50;;;8.00;;
32292;SDS011;43233;48.608;8.838;2024-01-30T00:23:41;15.17;;;9.37;;
32292;SDS011;43233;48.608;8.838;2024-01-30T00:26:07;10.33;;;7.30;;
32292;SDS011;43233;48.608;8.838;2024-01-30T00:28:32;10.53;;;7.20;;
32292;SDS011;43233;48.608;8.838;2024-01-30T00:30:58;8.93;;;7.13;;
32292;SDS011;43233;48.608;8.838;2024-01-30T00:33:23;10.47;;;7.30;;
32292;SDS011;43233;48.608;8.838;2024-01-30T00:35:49;14.93;;;9.43;;
32292;SDS011;43233;48.608;8.838;2024-01-30T00:38:15;10.20;;;7.40;;
32292;SDS011;43233;48.608;8.838;2024-01-30T00:40:40;8.97;;;6.70;;
32292;SDS011;43233;48.608;8.838;2024-01-30T00:43:06;8.23;;;7.07;;
32292;SDS011;43233;48.608;8.838;2024-01-30T00:45:32;11.63;;;7.73;;
32292;SDS011;43233;48.608;8.838;2024-01-30T00:47:57;9.40;;;6.50;;
32292;SDS011;43233;48.608;8.838;2024-01-30T00:50:23;9.10;;;7.80;;
32292;SDS011;43233;48.608;8.838;2024-01-30T00:52:49;11.27;;;8.23;;
32292;SDS011;43233;48.608;8.838;2024-01-30T00:55:14;11.43;;;8.77;;
32292;SDS011;43233;48.608;8.838;2024-01-30T00:57:40;9.13;;;7.37;;
32292;SDS011;43233;48.608;8.838;2024-01-30T01:00:06;12.03;;;8.57;;
32292;SDS011;43233;48.608;8.838;2024-01-30T01:02:34;9.63;;;6.90;;
32292;SDS011;43233;48.608;8.838;2024-01-30T01:05:00;8.47;;;6.20;;
32292;SDS011;43233;48.608;8.838;2024-01-30T01:07:26;6.60;;;5.30;;
32292;SDS011;43233;48.608;8.838;2024-01-30T01:09:52;7.50;;;6.07;;
32292;SDS011;43233;48.608;8.838;2024-01-30T01:12:17;12.73;;;7.23;;
32292;SDS011;43233;48.608;8.838;2024-01-30T01:14:43;12.17;;;7.80;;
32292;SDS011;43233;48.608;8.838;2024-01-30T01:17:08;11.37;;;7.33;;
32292;SDS011;43233;48.608;8.838;2024-01-30T01:19:34;10.03;;;8.30;;
32292;SDS011;43233;48.608;8.838;2024-01-30T01:22:00;12.50;;;8.70;;
32292;SDS011;43233;48.608;8.838;2024-01-30T01:24:25;11.73;;;8.43;;
32292;SDS011;43233;48.608;8.838;2024-01-30T01:26:51;9.83;;;6.70;;
32292;SDS011;43233;48.608;8.838;2024-01-30T01:29:16;8.13;;;7.20;;
32292;SDS011;43233;48.608;8.838;2024-01-30T01:31:42;11.20;;;7.33;;
32292;SDS011;43233;48.608;8.838;2024-01-30T01:34:11;8.40;;;7.03;;
32292;SDS011;43233;48.608;8.838;2024-01-30T01:36:37;7.30;;;6.23;;
32292;SDS011;43233;48.608;8.838;2024-01-30T01:39:04;7.73;;;6.33;;
32292;SDS011;43233;48.608;8.838;2024-01-30T01:41:30;11.97;;;6.93;;
32292;SDS011;43233;48.608;8.838;2024-01-30T01:43:59;10.30;;;6.87;;
32292;SDS011;43233;48.608;8.838;2024-01-30T01:46:29;11.63;;;8.43;;
32292;SDS011;43233;48.608;8.838;2024-01-30T01:48:57;13.33;;;5.57;;
32292;SDS011;43233;48.608;8.838;2024-01-30T01:51:26;11.17;;;8.00;;
32292;SDS011;43233;48.608;8.838;2024-01-30T01:53:55;13.63;;;9.00;;
32292;SDS011;43233;48.608;8.838;2024-01-30T01:56:22;15.50;;;9.17;;
32292;SDS011;43233;48.608;8.838;2024-01-30T01:58:49;10.53;;;7.23;;
32292;SDS011;43233;48.608;8.838;2024-01-30T02:01:18;11.57;;;8.30;;
32292;SDS011;43233;48.608;8.838;2024-01-30T02:03:45;14.73;;;7.20;;
32292;SDS011;43233;48.608;8.838;2024-01-30T02:06:11;12.87;;;8.50;;
32292;SDS011;43233;48.608;8.838;2024-01-30T02:08:41;8.90;;;7.60;;
32292;SDS011;43233;48.608;8.838;2024-01-30T02:11:06;10.60;;;7.70;;
32292;SDS011;43233;48.608;8.838;2024-01-30T02:13:33;7.77;;;6.93;;
32292;SDS011;43233;48.608;8.838;2024-01-30T02:15:59;8.33;;;6.50;;
32292;SDS011;43233;48.608;8.838;2024-01-30T02:18:26;8.43;;;6.73;;
32292;SDS011;43233;48.608;8.838;2024-01-30T02:20:52;7.13;;;6.20;;
32292;SDS011;43233;48.608;8.838;2024-01-30T02:23:19;11.33;;;6.67;;
32292;SDS011;43233;48.608;8.838;2024-01-30T02:25:45;7.33;;;5.43;;
32292;SDS011;43233;48.608;8.838;2024-01-30T02:28:11;9.27;;;6.37;;
32292;SDS011;43233;48.608;8.838;2024-01-30T02:30:38;8.27;;;6.07;;
32292;SDS011;43233;48.608;8.838;2024-01-30T02:33:10;9.17;;;6.13;;
32292;SDS011;43233;48.608;8.838;2024-01-30T02:35:36;9.70;;;6.17;;
32292;SDS011;43233;48.608;8.838;2024-01-30T02:38:01;7.90;;;5.80;;
32292;SDS011;43233;48.608;8.838;2024-01-30T02:40:27;6.60;;;5.63;;
32292;SDS011;43233;48.608;8.838;2024-01-30T02:42:53;8.83;;;6.03;;
32292;SDS011;43233;48.608;8.838;2024-01-30T02:45:18;6.80;;;6.03;;
32292;SDS011;43233;48.608;8.838;2024-01-30T02:47:45;9.23;;;6.70;;
32292;SDS011;43233;48.608;8.838;2024-01-30T02:50:11;11.70;;;6.87;;
32292;SDS011;43233;48.608;8.838;2024-01-30T02:52:37;10.77;;;7.70;;
32292;SDS011;43233;48.608;8.838;2024-01-30T02:55:02;8.53;;;6.20;;
32292;SDS011;43233;48.608;8.838;2024-01-30T02:57:28;7.57;;;5.90;;
32292;SDS011;43233;48.608;8.838;2024-01-30T02:59:54;9.33;;;6.27;;
32292;SDS011;43233;48.608;8.838;2024-01-30T03:02:20;6.90;;;6.20;;
32292;SDS011;43233;48.608;8.838;2024-01-30T03:04:45;6.50;;;5.13;;
32292;SDS011;43233;48.608;8.838;2024-01-30T03:07:11;9.20;;;6.43;;
32292;SDS011;43233;48.608;8.838;2024-01-30T03:09:38;9.33;;;5.40;;
32292;SDS011;43233;48.608;8.838;2024-01-30T03:12:04;6.90;;;5.63;;
32292;SDS011;43233;48.608;8.838;2024-01-30T03:14:30;9.90;;;5.83;;
32292;SDS011;43233;48.608;8.838;2024-01-30T03:16:56;6.70;;;5.20;;
32292;SDS011;43233;48.608;8.838;2024-01-30T03:19:22;5.43;;;4.43;;
32292;SDS011;43233;48.608;8.838;2024-01-30T03:21:48;7.20;;;5.00;;
32292;SDS011;43233;48.608;8.838;2024-01-30T03:24:14;8.20;;;5.20;;
32292;SDS011;43233;48.608;8.838;2024-01-30T03:26:40;7.87;;;4.80;;
32292;SDS011;43233;48.608;8.838;2024-01-30T03:29:05;9.70;;;5.83;;
32292;SDS011;43233;48.608;8.838;2024-01-30T03:31:31;8.13;;;5.50;;
32292;SDS011;43233;48.608;8.838;2024-01-30T03:33:57;11.07;;;5.37;;
32292;SDS011;43233;48.608;8.838;2024-01-30T03:36:23;6.80;;;5.80;;
32292;SDS011;43233;48.608;8.838;2024-01-30T03:38:48;6.23;;;5.30;;
32292;SDS011;43233;48.608;8.838;2024-01-30T03:41:14;9.40;;;5.17;;
32292;SDS011;43233;48.608;8.838;2024-01-30T03:43:40;6.67;;;5.43;;
32292;SDS011;43233;48.608;8.838;2024-01-30T03:46:05;5.77;;;4.77;;
32292;SDS011;43233;48.608;8.838;2024-01-30T03:48:31;9.80;;;4.97;;
32292;SDS011;43233;48.608;8.838;2024-01-30T03:50:57;5.97;;;4.87;;
32292;SDS011;43233;48.608;8.838;2024-01-30T03:53:22;5.60;;;4.87;;
32292;SDS011;43233;48.608;8.838;2024-01-30T03:55:48;5.70;;;4.37;;
32292;SDS011;43233;48.608;8.838;2024-01-30T03:58:14;4.20;;;3.90;;
32292;SDS011;43233;48.608;8.838;2024-01-30T04:00:39;6.10;;;4.77;;
32292;SDS011;43233;48.608;8.838;2024-01-30T04:03:06;4.60;;;4.20;;
32292;SDS011;43233;48.608;8.838;2024-01-30T04:05:32;5.40;;;4.60;;
32292;SDS011;43233;48.608;8.838;2024-01-30T04:07:58;4.47;;;4.07;;
32292;SDS011;43233;48.608;8.838;2024-01-30T04:10:24;4.57;;;4.00;;
32292;SDS011;43233;48.608;8.838;2024-01-30T04:12:50;9.00;;;5.77;;
32292;SDS011;43233;48.608;8.838;2024-01-30T04:15:16;8.80;;;4.80;;
32292;SDS011;43233;48.608;8.838;2024-01-30T04:17:42;5.73;;;4.27;;
32292;SDS011;43233;48.608;8.838;2024-01-30T04:20:13;4.60;;;4.20;;
32292;SDS011;43233;48.608;8.838;2024-01-30T04:22:45;5.33;;;4.10;;
32292;SDS011;43233;48.608;8.838;2024-01-30T04:25:11;5.20;;;4.70;;
32292;SDS011;43233;48.608;8.838;2024-01-30T04:27:37;5.20;;;4.70;;
32292;SDS011;43233;48.608;8.838;2024-01-30T04:30:03;5.60;;;5.03;;
32292;SDS011;43233;48.608;8.838;2024-01-30T04:32:29;4.87;;;4.47;;
32292;SDS011;43233;48.608;8.838;2024-01-30T04:34:55;6.53;;;4.70;;
32292;SDS011;43233;48.608;8.838;2024-01-30T04:37:20;9.77;;;5.30;;
32292;SDS011;43233;48.608;8.838;2024-01-30T04:39:46;7.13;;;5.90;;
32292;SDS011;43233;48.608;8.838;2024-01-30T04:42:12;12.60;;;7.93;;
32292;SDS011;43233;48.608;8.838;2024-01-30T04:44:37;9.27;;;7.60;;
32292;SDS011;43233;48.608;8.838;2024-01-30T04:47:03;12.10;;;8.37;;
32292;SDS011;43233;48.608;8.838;2024-01-30T04:49:31;9.10;;;6.83;;
32292;SDS011;43233;48.608;8.838;2024-01-30T04:51:57;8.70;;;6.00;;
32292;SDS011;43233;48.608;8.838;2024-01-30T04:54:22;9.37;;;6.43;;
32292;SDS011;43233;48.608;8.838;2024-01-30T04:56:48;8.97;;;6.60;;
32292;SDS011;43233;48.608;8.838;2024-01-30T04:59:14;11.77;;;7.00;;
32292;SDS011;43233;48.608;8.838;2024-01-30T05:01:39;35.70;;;19.13;;
32292;SDS011;43233;48.608;8.838;2024-01-30T05:04:07;17.57;;;10.70;;
32292;SDS011;43233;48.608;8.838;2024-01-30T05:06:34;15.03;;;9.60;;
32292;SDS011;43233;48.608;8.838;2024-01-30T05:08:59;12.60;;;8.83;;
32292;SDS011;43233;48.608;8.838;2024-01-30T05:11:25;12.40;;;9.50;;
32292;SDS011;43233;48.608;8.838;2024-01-30T05:13:50;14.23;;;8.77;;
32292;SDS011;43233;48.608;8.838;2024-01-30T05:16:16;13.30;;;9.57;;
32292;SDS011;43233;48.608;8.838;2024-01-30T05:18:42;13.37;;;9.27;;
32292;SDS011;43233;48.608;8.838;2024-01-30T05:21:08;15.33;;;10.30;;
32292;SDS011;43233;48.608;8.838;2024-01-30T05:23:35;9.93;;;7.57;;
32292;SDS011;43233;48.608;8.838;2024-01-30T05:26:00;11.07;;;7.47;;
32292;SDS011;43233;48.608;8.838;2024-01-30T05:28:27;10.53;;;7.43;;
32292;SDS011;43233;48.608;8.838;2024-01-30T05:30:54;12.37;;;8.30;;
32292;SDS011;43233;48.608;8.838;2024-01-30T05:33:20;23.87;;;13.40;;
32292;SDS011;43233;48.608;8.838;2024-01-30T05:35:46;36.43;;;17.13;;
32292;SDS011;43233;48.608;8.838;2024-01-30T05:38:11;27.67;;;15.57;;
32292;SDS011;43233;48.608;8.838;2024-01-30T05:40:37;14.87;;;9.17;;
32292;SDS011;43233;48.608;8.838;2024-01-30T05:43:03;10.13;;;7.77;;
32292;SDS011;43233;48.608;8.838;2024-01-30T05:45:28;13.53;;;6.90;;
32292;SDS011;43233;48.608;8.838;2024-01-30T05:47:54;8.73;;;7.10;;
32292;SDS011;43233;48.608;8.838;2024-01-30T05:50:20;14.20;;;6.50;;
32292;SDS011;43233;48.608;8.838;2024-01-30T05:52:48;9.60;;;6.67;;
32292;SDS011;43233;48.608;8.838;2024-01-30T05:55:13;7.57;;;5.77;;
32292;SDS011;43233;48.608;8.838;2024-01-30T05:57:39;9.37;;;6.50;;
32292;SDS011;43233;48.608;8.838;2024-01-30T06:00:05;10.37;;;8.00;;
32292;SDS011;43233;48.608;8.838;2024-01-30T06:02:32;12.87;;;7.07;;
32292;SDS011;43233;48.608;8.838;2024-01-30T06:04:58;11.57;;;7.90;;
32292;SDS011;43233;48.608;8.838;2024-01-30T06:07:23;17.60;;;7.90;;
32292;SDS011;43233;48.608;8.838;2024-01-30T06:09:49;12.00;;;8.70;;
32292;SDS011;43233;48.608;8.838;2024-01-30T06:12:15;14.53;;;7.83;;
32292;SDS011;43233;48.608;8.838;2024-01-30T06:14:40;14.97;;;8.37;;
32292;SDS011;43233;48.608;8.838;2024-01-30T06:17:07;11.70;;;8.40;;
32292;SDS011;43233;48.608;8.838;2024-01-30T06:19:33;13.03;;;6.93;;
32292;SDS011;43233;48.608;8.838;2024-01-30T06:21:59;9.13;;;7.10;;
32292;SDS011;43233;48.608;8.838;2024-01-30T06:24:25;10.60;;;7.70;;
32292;SDS011;43233;48.608;8.838;2024-01-30T06:26:51;10.20;;;7.00;;
32292;SDS011;43233;48.608;8.838;2024-01-30T06:29:16;12.00;;;6.10;;
32292;SDS011;43233;48.608;8.838;2024-01-30T06:31:42;9.87;;;6.50;;
32292;SDS011;43233;48.608;8.838;2024-01-30T06:34:08;10.90;;;6.87;;
32292;SDS011;43233;48.608;8.838;2024-01-30T06:36:36;7.43;;;5.80;;
32292;SDS011;43233;48.608;8.838;2024-01-30T06:39:02;13.53;;;5.77;;
32292;SDS011;43233;48.608;8.838;2024-01-30T06:41:28;11.13;;;5.80;;
32292;SDS011;43233;48.608;8.838;2024-01-30T06:43:54;11.23;;;5.80;;
32292;SDS011;43233;48.608;8.838;2024-01-30T06:46:20;14.00;;;6.00;;
32292;SDS011;43233;48.608;8.838;2024-01-30T06:48:46;6.50;;;5.83;;
32292;SDS011;43233;48.608;8.838;2024-01-30T06:51:11;7.53;;;5.67;;
32292;SDS011;43233;48.608;8.838;2024-01-30T06:53:37;8.30;;;7.10;;
32292;SDS011;43233;48.608;8.838;2024-01-30T06:56:03;8.10;;;6.27;;
32292;SDS011;43233;48.608;8.838;2024-01-30T06:58:29;7.43;;;5.60;;
32292;SDS011;43233;48.608;8.838;2024-01-30T07:00:55;10.00;;;5.87;;
32292;SDS011;43233;48.608;8.838;2024-01-30T07:03:21;6.50;;;5.83;;
32292;SDS011;43233;48.608;8.838;2024-01-30T07:05:47;8.10;;;6.50;;
32292;SDS011;43233;48.608;8.838;2024-01-30T07:08:12;8.73;;;6.90;;
32292;SDS011;43233;48.608;8.838;2024-01-30T07:10:38;11.53;;;7.40;;
32292;SDS011;43233;48.608;8.838;2024-01-30T07:13:04;12.50;;;8.97;;
32292;SDS011;43233;48.608;8.838;2024-01-30T07:15:30;13.60;;;9.17;;
32292;SDS011;43233;48.608;8.838;2024-01-30T07:17:56;18.73;;;9.80;;
32292;SDS011;43233;48.608;8.838;2024-01-30T07:20:22;18.27;;;12.00;;
32292;SDS011;43233;48.608;8.838;2024-01-30T07:22:48;12.10;;;8.60;;
32292;SDS011;43233;48.608;8.838;2024-01-30T07:25:14;12.93;;;8.50;;
32292;SDS011;43233;48.608;8.838;2024-01-30T07:27:41;13.33;;;8.57;;
32292;SDS011;43233;48.608;8.838;2024-01-30T07:30:07;15.87;;;8.03;;
32292;SDS011;43233;48.608;8.838;2024-01-30T07:32:33;11.53;;;7.67;;
32292;SDS011;43233;48.608;8.838;2024-01-30T07:34:58;8.93;;;6.63;;
32292;SDS011;43233;48.608;8.838;2024-01-30T07:37:24;8.30;;;6.23;;
32292;SDS011;43233;48.608;8.838;2024-01-30T07:39:50;10.53;;;6.57;;
32292;SDS011;43233;48.608;8.838;2024-01-30T07:42:15;10.60;;;7.67;;
32292;SDS011;43233;48.608;8.838;2024-01-30T07:44:42;9.97;;;7.10;;
32292;SDS011;43233;48.608;8.838;2024-01-30T07:47:08;13.40;;;7.40;;
32292;SDS011;43233;48.608;8.838;2024-01-30T07:49:34;10.80;;;8.47;;
32292;SDS011;43233;48.608;8.838;2024-01-30T07:51:59;10.63;;;8.40;;
32292;SDS011;43233;48.608;8.838;2024-01-30T07:54:25;11.63;;;8.10;;
32292;SDS011;43233;48.608;8.838;2024-01-30T07:56:51;10.63;;;7.60;;
32292;SDS011;43233;48.608;8.838;2024-01-30T07:59:16;10.20;;;7.00;;
32292;SDS011;43233;48.608;8.838;2024-01-30T08:01:43;14.68;;;8.20;;
32292;SDS011;43233;48.608;8.838;2024-01-30T08:04:09;11.20;;;7.50;;
32292;SDS011;43233;48.608;8.838;2024-01-30T08:06:34;8.60;;;6.50;;
32292;SDS011;43233;48.608;8.838;2024-01-30T08:09:00;8.07;;;6.70;;
32292;SDS011;43233;48.608;8.838;2024-01-30T08:11:25;8.20;;;6.50;;
32292;SDS011;43233;48.608;8.838;2024-01-30T08:13:53;7.20;;;5.83;;
32292;SDS011;43233;48.608;8.838;2024-01-30T08:16:19;7.90;;;6.17;;
32292;SDS011;43233;48.608;8.838;2024-01-30T08:18:44;10.07;;;6.60;;
32292;SDS011;43233;48.608;8.838;2024-01-30T08:21:10;8.40;;;7.00;;
32292;SDS011;43233;48.608;8.838;2024-01-30T08:23:37;13.77;;;7.10;;
32292;SDS011;43233;48.608;8.838;2024-01-30T08:26:04;12.17;;;7.80;;
32292;SDS011;43233;48.608;8.838;2024-01-30T08:28:30;15.23;;;8.70;;
32292;SDS011;43233;48.608;8.838;2024-01-30T08:30:55;24.30;;;13.47;;
32292;SDS011;43233;48.608;8.838;2024-01-30T08:33:21;20.27;;;11.70;;
32292;SDS011;43233;48.608;8.838;2024-01-30T08:35:46;20.97;;;11.60;;
32292;SDS011;43233;48.608;8.838;2024-01-30T08:38:12;16.27;;;10.37;;
32292;SDS011;43233;48.608;8.838;2024-01-30T08:40:38;16.57;;;10.40;;
32292;SDS011;43233;48.608;8.838;2024-01-30T08:43:03;16.27;;;10.03;;
32292;SDS011;43233;48.608;8.838;2024-01-30T08:45:29;15.30;;;8.83;;
32292;SDS011;43233;48.608;8.838;2024-01-30T08:47:55;11.30;;;7.53;;
32292;SDS011;43233;48.608;8.838;2024-01-30T08:50:21;24.17;;;12.70;;
32292;SDS011;43233;48.608;8.838;2024-01-30T08:52:47;19.73;;;11.43;;
32292;SDS011;43233;48.608;8.838;2024-01-30T08:55:13;23.67;;;12.53;;
32292;SDS011;43233;48.608;8.838;2024-01-30T08:57:38;13.13;;;8.90;;
32292;SDS011;43233;48.608;8.838;2024-01-30T09:00:04;10.47;;;6.73;;
32292;SDS011;43233;48.608;8.838;2024-01-30T09:02:32;10.30;;;7.50;;
32292;SDS011;43233;48.608;8.838;2024-01-30T09:04:57;13.63;;;8.50;;
32292;SDS011;43233;48.608;8.838;2024-01-30T09:07:23;16.47;;;8.50;;
32292;SDS011;43233;48.608;8.838;2024-01-30T09:09:49;31.13;;;13.43;;
32292;SDS011;43233;48.608;8.838;2024-01-30T09:12:15;35.80;;;16.63;;
32292;SDS011;43233;48.608;8.838;2024-01-30T09:14:40;23.07;;;11.63;;
32292;SDS011;43233;48.608;8.838;2024-01-30T09:17:06;20.40;;;11.13;;
32292;SDS011;43233;48.608;8.838;2024-01-30T09:19:32;23.57;;;12.10;;
32292;SDS011;43233;48.608;8.838;2024-01-30T09:21:58;26.77;;;10.70;;
32292;SDS011;43233;48.608;8.838;2024-01-30T09:24:25;13.77;;;8.07;;
32292;SDS011;43233;48.608;8.838;2024-01-30T09:26:51;16.53;;;8.20;;
32292;SDS011;43233;48.608;8.838;2024-01-30T09:29:17;11.10;;;7.77;;
32292;SDS011;43233;48.608;8.838;2024-01-30T09:31:43;11.17;;;7.03;;
32292;SDS011;43233;48.608;8.838;2024-01-30T09:34:12;14.50;;;8.33;;
32292;SDS011;43233;48.608;8.838;2024-01-30T09:36:39;11.40;;;8.73;;
32292;SDS011;43233;48.608;8.838;2024-01-30T09:39:04;12.43;;;8.90;;
32292;SDS011;43233;48.608;8.838;2024-01-30T09:41:32;15.17;;;9.00;;
32292;SDS011;43233;48.608;8.838;2024-01-30T09:44:01;23.30;;;10.73;;
32292;SDS011;43233;48.608;8.838;2024-01-30T09:46:28;13.90;;;8.83;;
32292;SDS011;43233;48.608;8.838;2024-01-30T09:48:57;14.27;;;8.07;;
32292;SDS011;43233;48.608;8.838;2024-01-30T09:51:23;17.67;;;7.67;;
32292;SDS011;43233;48.608;8.838;2024-01-30T09:53:50;9.67;;;7.80;;
32292;SDS011;43233;48.608;8.838;2024-01-30T09:56:16;15.10;;;8.87;;
32292;SDS011;43233;48.608;8.838;2024-01-30T09:58:41;12.03;;;7.87;;
32292;SDS011;43233;48.608;8.838;2024-01-30T10:01:07;14.27;;;8.20;;
32292;SDS011;43233;48.608;8.838;2024-01-30T10:03:33;10.50;;;7.40;;
32292;SDS011;43233;48.608;8.838;2024-01-30T10:05:59;8.77;;;7.60;;
32292;SDS011;43233;48.608;8.838;2024-01-30T10:08:26;11.57;;;7.40;;
32292;SDS011;43233;48.608;8.838;2024-01-30T10:10:51;12.93;;;7.60;;
32292;SDS011;43233;48.608;8.838;2024-01-30T10:13:17;10.63;;;6.20;;
32292;SDS011;43233;48.608;8.838;2024-01-30T10:15:43;10.63;;;6.90;;
32292;SDS011;43233;48.608;8.838;2024-01-30T10:18:10;11.50;;;5.90;;
32292;SDS011;43233;48.608;8.838;2024-01-30T10:20:36;10.97;;;6.50;;
32292;SDS011;43233;48.608;8.838;2024-01-30T10:23:02;5.57;;;4.80;;
32292;SDS011;43233;48.608;8.838;2024-01-30T10:25:28;9.43;;;6.90;;
32292;SDS011;43233;48.608;8.838;2024-01-30T10:27:55;20.10;;;8.40;;
32292;SDS011;43233;48.608;8.838;2024-01-30T10:30:21;30.30;;;12.63;;
32292;SDS011;43233;48.608;8.838;2024-01-30T10:32:47;15.43;;;9.80;;
32292;SDS011;43233;48.608;8.838;2024-01-30T10:35:13;9.63;;;7.50;;
32292;SDS011;43233;48.608;8.838;2024-01-30T10:37:39;19.97;;;9.70;;
32292;SDS011;43233;48.608;8.838;2024-01-30T10:40:08;13.17;;;8.33;;
32292;SDS011;43233;48.608;8.838;2024-01-30T10:42:37;6.70;;;5.87;;
32292;SDS011;43233;48.608;8.838;2024-01-30T10:45:08;9.80;;;6.80;;
32292;SDS011;43233;48.608;8.838;2024-01-30T10:47:35;6.77;;;5.03;;
32292;SDS011;43233;48.608;8.838;2024-01-30T10:50:02;7.27;;;5.30;;
32292;SDS011;43233;48.608;8.838;2024-01-30T10:52:31;9.97;;;5.93;;
32292;SDS011;43233;48.608;8.838;2024-01-30T10:54:57;7.97;;;5.70;;
32292;SDS011;43233;48.608;8.838;2024-01-30T10:57:24;9.80;;;6.57;;
32292;SDS011;43233;48.608;8.838;2024-01-30T10:59:51;9.90;;;6.80;;
32292;SDS011;43233;48.608;8.838;2024-01-30T11:02:19;8.63;;;6.30;;
32292;SDS011;43233;48.608;8.838;2024-01-30T11:04:46;10.53;;;6.13;;
32292;SDS011;43233;48.608;8.838;2024-01-30T11:07:19;9.77;;;5.60;;
32292;SDS011;43233;48.608;8.838;2024-01-30T11:09:53;19.50;;;7.13;;
32292;SDS011;43233;48.608;8.838;2024-01-30T11:12:22;9.40;;;5.87;;
32292;SDS011;43233;48.608;8.838;2024-01-30T11:14:50;11.50;;;5.80;;
32292;SDS011;43233;48.608;8.838;2024-01-30T11:17:39;12.10;;;6.70;;
32292;SDS011;43233;48.608;8.838;2024-01-30T11:20:50;12.53;;;7.20;;
32292;SDS011;43233;48.608;8.838;2024-01-30T11:22:57;11.33;;;6.33;;
32292;SDS011;43233;48.608;8.838;2024-01-30T11:25:24;14.13;;;8.20;;
32292;SDS011;43233;48.608;8.838;2024-01-30T11:27:53;19.50;;;10.50;;
32292;SDS011;43233;48.608;8.838;2024-01-30T11:30:27;18.60;;;10.07;;
32292;SDS011;43233;48.608;8.838;2024-01-30T11:33:06;14.13;;;7.63;;
32292;SDS011;43233;48.608;8.838;2024-01-30T11:35:36;10.63;;;7.33;;
32292;SDS011;43233;48.608;8.838;2024-01-30T11:38:09;13.53;;;8.40;;
32292;SDS011;43233;48.608;8.838;2024-01-30T11:40:39;13.83;;;8.53;;
32292;SDS011;43233;48.608;8.838;2024-01-30T11:43:06;11.07;;;7.27;;
32292;SDS011;43233;48.608;8.838;2024-01-30T11:45:32;13.40;;;7.33;;
32292;SDS011;43233;48.608;8.838;2024-01-30T11:47:58;14.00;;;7.30;;
32292;SDS011;43233;48.608;8.838;2024-01-30T11:50:26;12.53;;;7.27;;
32292;SDS011;43233;48.608;8.838;2024-01-30T11:52:53;11.30;;;7.50;;
32292;SDS011;43233;48.608;8.838;2024-01-30T11:55:19;11.07;;;7.43;;
32292;SDS011;43233;48.608;8.838;2024-01-30T11:57:45;13.93;;;7.43;;
32292;SDS011;43233;48.608;8.838;2024-01-30T12:00:14;10.40;;;7.10;;
32292;SDS011;43233;48.608;8.838;2024-01-30T12:02:41;16.00;;;8.00;;
32292;SDS011;43233;48.608;8.838;2024-01-30T12:05:07;11.37;;;7.40;;
32292;SDS011;43233;48.608;8.838;2024-01-30T12:07:34;11.03;;;6.93;;
32292;SDS011;43233;48.608;8.838;2024-01-30T12:09:59;10.70;;;6.93;;
32292;SDS011;43233;48.608;8.838;2024-01-30T12:12:26;15.13;;;8.60;;
32292;SDS011;43233;48.608;8.838;2024-01-30T12:14:52;19.23;;;8.80;;
32292;SDS011;43233;48.608;8.838;2024-01-30T12:17:31;10.47;;;8.00;;
32292;SDS011;43233;48.608;8.838;2024-01-30T12:22:31;10.77;;;7.40;;
32292;SDS011;43233;48.608;8.838;2024-01-30T12:25:05;17.43;;;7.20;;
32292;SDS011;43233;48.608;8.838;2024-01-30T12:27:33;17.37;;;7.80;;
32292;SDS011;43233;48.608;8.838;2024-01-30T12:29:59;8.30;;;6.63;;
32292;SDS011;43233;48.608;8.838;2024-01-30T12:32:24;8.90;;;7.17;;
32292;SDS011;43233;48.608;8.838;2024-01-30T12:34:50;7.70;;;6.30;;
32292;SDS011;43233;48.608;8.838;2024-01-30T12:37:20;12.23;;;6.07;;
32292;SDS011;43233;48.608;8.838;2024-01-30T12:39:47;8.63;;;5.87;;
32292;SDS011;43233;48.608;8.838;2024-01-30T12:42:14;9.10;;;6.17;;
32292;SDS011;43233;48.608;8.838;2024-01-30T12:44:40;7.80;;;5.63;;
32292;SDS011;43233;48.608;8.838;2024-01-30T12:47:08;9.77;;;6.27;;
32292;SDS011;43233;48.608;8.838;2024-01-30T12:49:34;8.30;;;5.70;;
32292;SDS011;43233;48.608;8.838;2024-01-30T12:52:00;10.37;;;6.73;;
32292;SDS011;43233;48.608;8.838;2024-01-30T12:54:26;9.27;;;6.00;;
32292;SDS011;43233;48.608;8.838;2024-01-30T12:56:51;8.07;;;5.80;;
32292;SDS011;43233;48.608;8.838;2024-01-30T12:59:17;6.73;;;5.80;;
32292;SDS011;43233;48.608;8.838;2024-01-30T13:01:43;10.70;;;6.40;;
32292;SDS011;43233;48.608;8.838;2024-01-30T13:04:08;10.20;;;5.80;;
32292;SDS011;43233;48.608;8.838;2024-01-30T13:06:34;12.20;;;6.33;;
32292;SDS011;43233;48.608;8.838;2024-01-30T13:09:00;7.10;;;6.20;;
32292;SDS011;43233;48.608;8.838;2024-01-30T13:11:25;6.87;;;5.83;;
32292;SDS011;43233;48.608;8.838;2024-01-30T13:13:51;10.20;;;5.80;;
32292;SDS011;43233;48.608;8.838;2024-01-30T13:16:17;7.30;;;5.40;;
32292;SDS011;43233;48.608;8.838;2024-01-30T13:18:43;8.23;;;6.00;;
32292;SDS011;43233;48.608;8.838;2024-01-30T13:21:09;8.27;;;6.37;;
32292;SDS011;43233;48.608;8.838;2024-01-30T13:23:34;10.83;;;7.10;;
32292;SDS011;43233;48.608;8.838;2024-01-30T13:26:00;16.30;;;6.90;;
32292;SDS011;43233;48.608;8.838;2024-01-30T13:28:26;9.20;;;6.67;;
32292;SDS011;43233;48.608;8.838;2024-01-30T13:30:51;9.17;;;7.03;;
32292;SDS011;43233;48.608;8.838;2024-01-30T13:33:17;7.83;;;5.97;;
32292;SDS011;43233;48.608;8.838;2024-01-30T13:35:43;10.30;;;5.80;;
32292;SDS011;43233;48.608;8.838;2024-01-30T13:38:08;8.83;;;6.33;;
32292;SDS011;43233;48.608;8.838;2024-01-30T13:40:34;11.90;;;6.47;;
32292;SDS011;43233;48.608;8.838;2024-01-30T13:42:59;9.67;;;6.57;;
32292;SDS011;43233;48.608;8.838;2024-01-30T13:45:25;11.80;;;6.43;;
32292;SDS011;43233;48.608;8.838;2024-01-30T13:47:51;8.60;;;6.17;;
32292;SDS011;43233;48.608;8.838;2024-01-30T13:50:16;23.30;;;6.53;;
32292;SDS011;43233;48.608;8.838;2024-01-30T13:52:43;10.37;;;7.07;;
32292;SDS011;43233;48.608;8.838;2024-01-30T13:55:09;10.93;;;7.43;;
32292;SDS011;43233;48.608;8.838;2024-01-30T13:57:35;9.53;;;6.50;;
32292;SDS011;43233;48.608;8.838;2024-01-30T14:00:02;13.47;;;7.37;;
32292;SDS011;43233;48.608;8.838;2024-01-30T14:02:32;10.27;;;6.10;;
32292;SDS011;43233;48.608;8.838;2024-01-30T14:04:57;7.93;;;6.40;;
32292;SDS011;43233;48.608;8.838;2024-01-30T14:07:23;7.10;;;6.37;;
32292;SDS011;43233;48.608;8.838;2024-01-30T14:09:49;9.97;;;6.20;;
32292;SDS011;43233;48.608;8.838;2024-01-30T14:12:14;13.60;;;6.00;;
32292;SDS011;43233;48.608;8.838;2024-01-30T14:14:40;8.10;;;6.50;;
32292;SDS011;43233;48.608;8.838;2024-01-30T14:17:06;9.10;;;6.60;;
32292;SDS011;43233;48.608;8.838;2024-01-30T14:19:32;6.20;;;5.60;;
32292;SDS011;43233;48.608;8.838;2024-01-30T14:21:59;8.40;;;5.87;;
32292;SDS011;43233;48.608;8.838;2024-01-30T14:24:24;11.20;;;6.33;;
32292;SDS011;43233;48.608;8.838;2024-01-30T14:26:50;7.67;;;5.93;;
32292;SDS011;43233;48.608;8.838;2024-01-30T14:29:16;11.30;;;6.33;;
32292;SDS011;43233;48.608;8.838;2024-01-30T14:31:41;10.33;;;6.17;;
32292;SDS011;43233;48.608;8.838;2024-01-30T14:34:07;13.47;;;6.43;;
32292;SDS011;43233;48.608;8.838;2024-01-30T14:36:33;10.40;;;5.50;;